sensor_id;sensor_type;location;lat;lon;timestamp;P1;durP1;ratioP1;P2;durP2;ratioP2
63581;SDS011;49727;51.078;17.066;2022-07-04T00:00:22;9.25;;;6.47;;
63581;SDS011;49727;51.078;17.066;2022-07-04T00:15:22;9.20;;;7.07;;
63581;SDS011;49727;51.078;17.066;2022-07-04T00:30:23;10.73;;;7.22;;
63581;SDS011;49727;51.078;17.066;2022-07-04T00:45:23;8.57;;;7.05;;
63581;SDS011;49727;51.078;17.066;2022-07-04T01:00:23;10.77;;;7.40;;
63581;SDS011;49727;51.078;17.066;2022-07-04T01:15:24;12.93;;;7.60;;
63581;SDS011;49727;51.078;17.066;2022-07-04T01:30:25;10.00;;;7.20;;
63581;SDS011;49727;51.078;17.066;2022-07-04T01:45:26;9.63;;;8.40;;
63581;SDS011;49727;51.078;17.066;2022-07-04T02:00:26;12.27;;;7.50;;
63581;SDS011;49727;51.078;17.066;2022-07-04T02:15:46;10.53;;;8.23;;
63581;SDS011;49727;51.078;17.066;2022-07-04T02:30:46;12.50;;;9.15;;
63581;SDS011;49727;51.078;17.066;2022-07-04T02:45:47;12.40;;;9.63;;
63581;SDS011;49727;51.078;17.066;2022-07-04T03:00:47;12.48;;;9.43;;
63581;SDS011;49727;51.078;17.066;2022-07-04T03:15:47;10.40;;;9.27;;
63581;SDS011;49727;51.078;17.066;2022-07-04T03:30:48;13.05;;;9.98;;
63581;SDS011;49727;51.078;17.066;2022-07-04T03:45:48;11.38;;;8.80;;
63581;SDS011;49727;51.078;17.066;2022-07-04T04:00:48;23.77;;;9.32;;
63581;SDS011;49727;51.078;17.066;2022-07-04T04:15:49;9.48;;;7.97;;
63581;SDS011;49727;51.078;17.066;2022-07-04T04:30:49;9.50;;;7.43;;
63581;SDS011;49727;51.078;17.066;2022-07-04T04:45:50;8.90;;;7.00;;
63581;SDS011;49727;51.078;17.066;2022-07-04T05:00:50;9.98;;;5.40;;
63581;SDS011;49727;51.078;17.066;2022-07-04T05:15:51;7.00;;;4.57;;
63581;SDS011;49727;51.078;17.066;2022-07-04T05:30:51;8.60;;;4.30;;
63581;SDS011;49727;51.078;17.066;2022-07-04T05:45:52;7.93;;;4.35;;
63581;SDS011;49727;51.078;17.066;2022-07-04T06:00:52;8.10;;;3.60;;
63581;SDS011;49727;51.078;17.066;2022-07-04T06:15:53;12.33;;;4.00;;
63581;SDS011;49727;51.078;17.066;2022-07-04T06:30:53;6.03;;;2.58;;
63581;SDS011;49727;51.078;17.066;2022-07-04T06:45:53;4.32;;;2.70;;
63581;SDS011;49727;51.078;17.066;2022-07-04T07:00:54;2.97;;;2.22;;
63581;SDS011;49727;51.078;17.066;2022-07-04T07:15:54;5.68;;;2.60;;
63581;SDS011;49727;51.078;17.066;2022-07-04T07:30:55;6.22;;;2.65;;
63581;SDS011;49727;51.078;17.066;2022-07-04T07:45:55;7.30;;;3.00;;
63581;SDS011;49727;51.078;17.066;2022-07-04T08:00:56;6.18;;;2.78;;
63581;SDS011;49727;51.078;17.066;2022-07-04T08:15:56;4.72;;;2.58;;
63581;SDS011;49727;51.078;17.066;2022-07-04T08:30:57;3.35;;;2.25;;
63581;SDS011;49727;51.078;17.066;2022-07-04T08:45:58;4.63;;;2.63;;
63581;SDS011;49727;51.078;17.066;2022-07-04T09:01:03;5.37;;;3.27;;
63581;SDS011;49727;51.078;17.066;2022-07-04T09:16:06;4.57;;;3.23;;
63581;SDS011;49727;51.078;17.066;2022-07-04T09:31:16;4.47;;;3.10;;
63581;SDS011;49727;51.078;17.066;2022-07-04T09:46:21;6.17;;;3.87;;
63581;SDS011;49727;51.078;17.066;2022-07-04T10:01:22;9.23;;;3.77;;
63581;SDS011;49727;51.078;17.066;2022-07-04T10:16:23;8.68;;;4.65;;
63581;SDS011;49727;51.078;17.066;2022-07-04T10:31:24;5.40;;;4.45;;
63581;SDS011;49727;51.078;17.066;2022-07-04T10:46:34;5.20;;;4.37;;
63581;SDS011;49727;51.078;17.066;2022-07-04T11:01:36;5.80;;;3.73;;
63581;SDS011;49727;51.078;17.066;2022-07-04T11:16:52;4.63;;;3.80;;
63581;SDS011;49727;51.078;17.066;2022-07-04T11:31:56;9.80;;;3.63;;
63581;SDS011;49727;51.078;17.066;2022-07-04T11:47:04;4.28;;;3.33;;
63581;SDS011;49727;51.078;17.066;2022-07-04T12:02:10;5.63;;;3.50;;
63581;SDS011;49727;51.078;17.066;2022-07-04T12:47:19;3.38;;;3.05;;
63581;SDS011;49727;51.078;17.066;2022-07-04T13:02:20;3.70;;;2.92;;
63581;SDS011;49727;51.078;17.066;2022-07-04T13:17:20;6.32;;;3.30;;
63581;SDS011;49727;51.078;17.066;2022-07-04T13:32:21;4.88;;;2.92;;
63581;SDS011;49727;51.078;17.066;2022-07-04T13:47:21;4.97;;;2.90;;
63581;SDS011;49727;51.078;17.066;2022-07-04T14:02:22;8.30;;;2.85;;
63581;SDS011;49727;51.078;17.066;2022-07-04T14:17:22;4.70;;;2.75;;
63581;SDS011;49727;51.078;17.066;2022-07-04T14:32:22;5.10;;;2.15;;
63581;SDS011;49727;51.078;17.066;2022-07-04T14:47:23;3.25;;;2.30;;
63581;SDS011;49727;51.078;17.066;2022-07-04T15:02:23;4.05;;;2.20;;
63581;SDS011;49727;51.078;17.066;2022-07-04T15:17:23;2.35;;;2.05;;
63581;SDS011;49727;51.078;17.066;2022-07-04T15:32:24;4.00;;;2.08;;
63581;SDS011;49727;51.078;17.066;2022-07-04T15:47:24;5.82;;;2.10;;
63581;SDS011;49727;51.078;17.066;2022-07-04T16:02:25;5.22;;;2.60;;
63581;SDS011;49727;51.078;17.066;2022-07-04T16:17:25;2.05;;;1.80;;
63581;SDS011;49727;51.078;17.066;2022-07-04T16:32:25;6.05;;;2.30;;
63581;SDS011;49727;51.078;17.066;2022-07-04T16:47:26;7.43;;;2.88;;
63581;SDS011;49727;51.078;17.066;2022-07-04T17:02:26;2.95;;;2.20;;
63581;SDS011;49727;51.078;17.066;2022-07-04T17:17:27;8.93;;;4.88;;
63581;SDS011;49727;51.078;17.066;2022-07-04T17:32:28;5.57;;;3.23;;
63581;SDS011;49727;51.078;17.066;2022-07-04T17:47:29;6.55;;;3.30;;
63581;SDS011;49727;51.078;17.066;2022-07-04T18:02:29;6.03;;;3.00;;
63581;SDS011;49727;51.078;17.066;2022-07-04T18:17:29;5.93;;;3.17;;
63581;SDS011;49727;51.078;17.066;2022-07-04T18:32:30;5.43;;;3.40;;
63581;SDS011;49727;51.078;17.066;2022-07-04T18:47:30;6.93;;;4.20;;
63581;SDS011;49727;51.078;17.066;2022-07-04T19:02:31;5.32;;;4.00;;
63581;SDS011;49727;51.078;17.066;2022-07-04T19:17:31;4.88;;;3.03;;
63581;SDS011;49727;51.078;17.066;2022-07-04T19:32:32;9.38;;;5.75;;
63581;SDS011;49727;51.078;17.066;2022-07-04T19:47:34;10.60;;;4.57;;
63581;SDS011;49727;51.078;17.066;2022-07-04T20:02:34;8.00;;;5.50;;
63581;SDS011;49727;51.078;17.066;2022-07-04T20:17:35;6.63;;;4.97;;
63581;SDS011;49727;51.078;17.066;2022-07-04T20:32:38;8.77;;;5.60;;
63581;SDS011;49727;51.078;17.066;2022-07-04T20:47:39;7.50;;;5.53;;
63581;SDS011;49727;51.078;17.066;2022-07-04T21:02:41;7.77;;;5.73;;
63581;SDS011;49727;51.078;17.066;2022-07-04T21:17:41;10.03;;;6.47;;
63581;SDS011;49727;51.078;17.066;2022-07-04T21:32:41;7.13;;;6.00;;
63581;SDS011;49727;51.078;17.066;2022-07-04T21:47:42;9.70;;;5.67;;
63581;SDS011;49727;51.078;17.066;2022-07-04T22:02:42;18.97;;;6.30;;
63581;SDS011;49727;51.078;17.066;2022-07-04T22:17:43;5.43;;;4.67;;
63581;SDS011;49727;51.078;17.066;2022-07-04T22:32:43;6.70;;;4.70;;
63581;SDS011;49727;51.078;17.066;2022-07-04T22:47:43;7.97;;;4.63;;
63581;SDS011;49727;51.078;17.066;2022-07-04T23:02:44;6.23;;;5.00;;
63581;SDS011;49727;51.078;17.066;2022-07-04T23:17:44;9.30;;;5.00;;
63581;SDS011;49727;51.078;17.066;2022-07-04T23:32:45;7.17;;;4.70;;
63581;SDS011;49727;51.078;17.066;2022-07-04T23:47:45;6.80;;;5.37;;
